Time;durP1;ratioP1;P1;durP2;ratioP2;P2;SDS_P1;SDS_P2;PMS_P1;PMS_P2;Temp;Humidity;BMP_temperature;BMP_pressure;BME280_temperature;BME280_humidity;BME280_pressure;Samples;Min_cycle;Max_cycle;Signal;HPM_P1;HPM_P2
2022/12/16 00:01:42;;;;;;;;;27.00;25.25;;;;;4.00;54.77;100543.13;5012373;28;45719;-67
2022/12/16 00:04:08;;;;;;;;;27.25;23.25;;;;;3.97;54.91;100542.28;5002809;28;45473;-67
2022/12/16 00:06:34;;;;;;;;;26.25;21.25;;;;;4.01;54.99;100544.00;5016826;28;45384;-67
2022/12/16 00:09:00;;;;;;;;;27.50;23.25;;;;;3.92;54.43;100531.75;4999643;28;45318;-67
2022/12/16 00:11:25;;;;;;;;;27.75;24.50;;;;;3.95;54.30;100549.34;4999430;28;45583;-67
2022/12/16 00:13:51;;;;;;;;;25.00;20.25;;;;;3.90;54.74;100546.75;5011880;28;45263;-67
2022/12/16 00:16:19;;;;;;;;;22.75;19.25;;;;;3.97;54.47;100566.06;4998464;28;45579;-67
2022/12/16 00:18:45;;;;;;;;;29.50;26.75;;;;;3.96;54.73;100561.66;5011296;28;45416;-67
2022/12/16 00:21:10;;;;;;;;;26.00;26.00;;;;;3.92;54.53;100567.88;5012761;28;45412;-67
2022/12/16 00:23:38;;;;;;;;;30.75;24.50;;;;;3.92;54.97;100576.66;5013423;28;46265;-67
2022/12/16 00:26:04;;;;;;;;;31.00;27.75;;;;;3.92;54.48;100571.38;5004425;28;45394;-67
2022/12/16 00:28:30;;;;;;;;;29.00;26.50;;;;;3.93;55.27;100591.63;5012510;28;45407;-67
2022/12/16 00:30:56;;;;;;;;;24.00;21.75;;;;;3.90;55.25;100583.72;4999433;28;45526;-67
2022/12/16 00:33:24;;;;;;;;;30.75;24.50;;;;;3.92;55.19;100584.56;5003977;28;48167;-67
2022/12/16 00:35:50;;;;;;;;;26.75;26.00;;;;;3.89;54.87;100581.94;5006507;28;45286;-67
2022/12/16 00:38:15;;;;;;;;;29.50;24.25;;;;;3.92;54.77;100584.56;5005722;28;45479;-67
2022/12/16 00:40:42;;;;;;;;;30.75;26.50;;;;;3.96;54.89;100594.25;4998183;28;45508;-67
2022/12/16 00:43:07;;;;;;;;;30.00;25.50;;;;;3.96;54.91;100588.97;4998891;28;46080;-67
2022/12/16 00:45:32;;;;;;;;;23.75;19.50;;;;;3.96;55.16;100588.06;4998676;28;45508;-67
2022/12/16 00:47:58;;;;;;;;;41.25;31.75;;;;;3.98;55.28;100586.31;5007923;28;45396;-67
2022/12/16 00:50:23;;;;;;;;;29.75;28.75;;;;;4.00;55.11;100592.44;4995350;28;45539;-67
2022/12/16 00:52:49;;;;;;;;;36.50;25.75;;;;;3.99;55.14;100588.03;5018373;28;45447;-67
2022/12/16 00:55:15;;;;;;;;;33.00;31.75;;;;;4.03;55.51;100595.06;5015456;28;45354;-67
2022/12/16 00:57:41;;;;;;;;;32.00;27.00;;;;;4.00;55.37;100593.31;4988883;28;45330;-67
2022/12/16 01:00:11;;;;;;;;;30.50;22.75;;;;;4.00;54.75;100593.31;5017413;28;45570;-67
2022/12/16 01:02:41;;;;;;;;;39.00;31.00;;;;;3.89;55.00;100576.66;4998967;28;45448;-67
2022/12/16 01:05:07;;;;;;;;;32.75;29.25;;;;;4.02;55.16;100599.47;5009134;28;45934;-67
2022/12/16 01:07:33;;;;;;;;;30.25;26.00;;;;;3.99;55.22;100598.63;5008405;28;45483;-67
2022/12/16 01:09:58;;;;;;;;;39.50;31.50;;;;;4.03;55.59;100600.34;5002522;28;45429;-67
2022/12/16 01:12:24;;;;;;;;;37.75;33.50;;;;;4.00;55.61;100601.25;5001087;28;46345;-67
2022/12/16 01:14:49;;;;;;;;;36.25;31.00;;;;;4.01;55.64;100607.41;5016140;28;45365;-67
2022/12/16 01:17:15;;;;;;;;;26.75;24.50;;;;;4.02;54.96;100602.09;5011413;28;45273;-67
2022/12/16 01:19:40;;;;;;;;;30.25;23.50;;;;;4.02;55.63;100617.09;5013603;28;45373;-67
2022/12/16 01:22:05;;;;;;;;;36.75;31.00;;;;;4.01;56.11;100617.97;5016684;28;46036;-67
2022/12/16 01:24:30;;;;;;;;;41.00;34.00;;;;;3.98;55.75;100610.94;5004586;28;45347;-67
2022/12/16 01:26:56;;;;;;;;;35.75;27.25;;;;;3.99;56.21;100625.94;4998457;28;45453;-67
2022/12/16 01:29:21;;;;;;;;;37.25;31.25;;;;;3.98;55.86;100624.16;5005963;28;45459;-67
2022/12/16 01:31:46;;;;;;;;;33.75;27.50;;;;;3.96;55.97;100630.31;4998088;28;45688;-67
2022/12/16 01:34:12;;;;;;;;;32.25;31.25;;;;;3.88;55.93;100615.41;5007066;28;45394;-67
2022/12/16 01:36:37;;;;;;;;;31.25;31.00;;;;;3.91;56.03;100633.03;5005148;28;45367;-67
2022/12/16 01:39:02;;;;;;;;;39.00;33.75;;;;;3.90;55.57;100634.75;5018021;28;45397;-67
2022/12/16 01:41:28;;;;;;;;;35.00;34.50;;;;;3.90;56.45;100636.53;5013851;28;45407;-67
2022/12/16 01:44:12;;;;;;;;;38.75;35.75;;;;;3.92;56.24;100642.69;5011138;28;45424;-67
2022/12/16 01:46:38;;;;;;;;;42.75;33.50;;;;;3.96;56.22;100647.06;4997124;28;45481;-67
2022/12/16 01:49:08;;;;;;;;;42.75;31.25;;;;;3.98;56.35;100655.00;5003269;28;45381;-67
2022/12/16 01:51:41;;;;;;;;;36.25;31.00;;;;;3.94;55.80;100659.38;5008020;28;46067;-67
2022/12/16 01:54:13;;;;;;;;;34.50;31.50;;;;;3.97;55.69;100669.94;5014995;28;45365;-67
2022/12/16 01:56:48;;;;;;;;;34.75;27.50;;;;;3.95;56.33;100673.50;5001634;28;45531;-67
2022/12/16 01:59:15;;;;;;;;;39.00;31.50;;;;;3.98;56.24;100676.13;5001499;28;45385;-67
2022/12/16 02:01:40;;;;;;;;;39.75;35.00;;;;;3.98;56.52;100681.41;5020734;28;45337;-67
2022/12/16 02:04:06;;;;;;;;;37.25;32.50;;;;;3.98;56.75;100687.53;5014725;28;45374;-67
2022/12/16 02:06:32;;;;;;;;;39.50;34.25;;;;;3.95;56.24;100684.91;5019526;28;45300;-67
2022/12/16 02:09:01;;;;;;;;;30.00;25.75;;;;;3.89;56.59;100680.56;5001552;28;45499;-67
2022/12/16 02:11:58;;;;;;;;;35.00;32.00;;;;;3.84;56.45;100697.31;5001280;28;46653;-67
2022/12/16 02:14:33;;;;;;;;;34.25;31.50;;;;;3.84;56.46;100697.31;5016195;28;45429;-67
2022/12/16 02:17:04;;;;;;;;;33.50;29.50;;;;;3.86;57.23;100696.41;5013737;28;46031;-67
2022/12/16 02:19:38;;;;;;;;;11.50;4.00;;;;;3.84;56.85;100705.22;5001150;28;45372;-67
2022/12/16 02:22:37;;;;;;;;;37.75;34.50;;;;;3.84;56.75;100699.94;5006456;28;45475;-67
2022/12/16 02:25:27;;;;;;;;;39.50;31.75;;;;;3.83;56.76;100699.06;5006950;28;45476;-67
2022/12/16 02:28:07;;;;;;;;;40.25;35.75;;;;;3.82;57.10;100691.16;5000938;28;45310;-67
2022/12/16 02:30:52;;;;;;;;;42.00;35.00;;;;;3.82;56.91;100686.75;5007232;28;45419;-67
2022/12/16 02:33:40;;;;;;;;;34.00;33.00;;;;;3.81;57.44;100695.56;5000303;28;45520;-67
2022/12/16 02:36:25;;;;;;;;;46.25;35.50;;;;;3.82;57.36;100693.81;5013112;28;45490;-67
2022/12/16 02:38:57;;;;;;;;;39.25;33.00;;;;;3.82;57.54;100691.16;5018047;28;45296;-67
2022/12/16 02:41:36;;;;;;;;;38.25;33.25;;;;;3.80;57.18;100696.44;5007135;28;45398;-67
2022/12/16 02:44:08;;;;;;;;;37.75;34.25;;;;;3.79;57.55;100684.16;5005390;28;46194;-67
2022/12/16 02:46:39;;;;;;;;;38.75;33.50;;;;;3.80;57.06;100688.53;5014029;28;45973;-67
2022/12/16 02:49:07;;;;;;;;;39.75;35.00;;;;;3.78;57.86;100679.75;5004378;28;45491;-67
2022/12/16 02:51:37;;;;;;;;;42.00;31.50;;;;;3.71;57.61;100667.47;5011332;28;45793;-67
2022/12/16 02:54:05;;;;;;;;;48.50;36.50;;;;;3.76;57.65;100684.16;5014161;28;45325;-67
2022/12/16 02:56:36;;;;;;;;;43.25;33.75;;;;;3.77;57.63;100693.81;5002752;28;45425;-67
2022/12/16 02:59:16;;;;;;;;;16.25;11.25;;;;;3.74;57.62;100688.53;5000491;28;45409;-67
2022/12/16 03:01:51;;;;;;;;;45.75;35.00;;;;;3.78;57.42;100692.94;5001144;28;45370;-67
2022/12/16 03:04:49;;;;;;;;;33.25;31.25;;;;;3.77;57.55;100699.09;4990241;28;47363;-67
2022/12/16 03:07:17;;;;;;;;;42.25;39.00;;;;;3.79;57.80;100696.44;4977344;28;45350;-67
2022/12/16 03:09:45;;;;;;;;;43.00;36.25;;;;;3.77;57.60;100683.25;5016357;28;45413;-67
2022/12/16 03:12:15;;;;;;;;;40.00;35.00;;;;;3.81;57.27;100694.66;5006528;28;45408;-67
2022/12/16 03:14:44;;;;;;;;;33.75;31.75;;;;;3.83;57.68;100692.94;5016928;28;45441;-67
2022/12/16 03:17:13;;;;;;;;;46.75;37.25;;;;;3.85;57.65;100705.22;5011170;28;45494;-67
2022/12/16 03:19:43;;;;;;;;;52.25;41.50;;;;;3.85;57.87;100709.63;5003043;28;45374;-67
2022/12/16 03:22:13;;;;;;;;;39.00;37.00;;;;;3.86;57.53;100708.75;5015269;28;45333;-67
2022/12/16 03:24:39;;;;;;;;;25.75;22.00;;;;;3.77;57.96;100696.47;5009003;28;45417;-67
2022/12/16 03:27:11;;;;;;;;;41.25;37.75;;;;;3.90;58.45;100711.34;5011202;28;45429;-67
2022/12/16 03:29:40;;;;;;;;;37.75;36.00;;;;;3.94;58.07;100708.69;5016222;28;45466;-67
2022/12/16 03:32:20;;;;;;;;;37.50;31.50;;;;;3.92;57.92;100703.41;4999777;28;45309;-67
2022/12/16 03:34:52;;;;;;;;;38.50;34.75;;;;;3.96;57.68;100710.47;5015179;28;45500;-67
2022/12/16 03:37:21;;;;;;;;;34.00;31.50;;;;;3.94;57.07;100712.19;5008621;28;45262;-67
2022/12/16 03:39:50;;;;;;;;;37.50;32.50;;;;;3.90;57.69;100715.75;5013291;28;45404;-67
2022/12/16 03:42:16;;;;;;;;;36.00;33.50;;;;;3.89;57.45;100720.19;5003205;28;45488;-67
2022/12/16 03:44:44;;;;;;;;;39.25;36.50;;;;;3.86;58.02;100717.56;5001454;28;46101;-67
2022/12/16 03:47:10;;;;;;;;;39.75;33.25;;;;;3.88;57.97;100717.53;5015609;28;46359;-67
2022/12/16 03:49:35;;;;;;;;;40.00;37.50;;;;;3.90;57.90;100726.31;5000060;28;45486;-67
2022/12/16 03:52:01;;;;;;;;;38.50;35.75;;;;;3.87;57.73;100723.69;5003467;28;45424;-67
2022/12/16 03:54:26;;;;;;;;;29.25;24.75;;;;;3.85;57.52;100728.97;5011582;28;45494;-67
2022/12/16 03:56:52;;;;;;;;;41.00;32.25;;;;;3.86;57.82;100730.75;5018611;28;45377;-67
2022/12/16 03:59:17;;;;;;;;;33.00;33.00;;;;;3.87;57.72;100723.69;5011878;28;45484;-67
2022/12/16 04:01:43;;;;;;;;;38.25;33.25;;;;;3.88;57.91;100728.09;5007516;28;45482;-67
2022/12/16 04:04:08;;;;;;;;;41.50;36.00;;;;;3.82;57.45;100718.44;5007013;28;45364;-67
2022/12/16 04:06:34;;;;;;;;;43.75;35.25;;;;;3.88;57.37;100738.66;5016056;28;45373;-67
2022/12/16 04:08:59;;;;;;;;;37.25;35.00;;;;;3.85;57.56;100734.25;5017584;28;45358;-67
2022/12/16 04:25:31;;;;;;;;;48.50;38.25;;;;;3.75;58.07;100755.44;5017474;28;45296;-67
2022/12/16 04:27:57;;;;;;;;;40.25;34.75;;;;;3.76;57.83;100763.38;5016608;28;45884;-67
2022/12/16 04:30:24;;;;;;;;;45.00;36.25;;;;;3.77;57.99;100764.25;4999645;28;45502;-67
